Time;durP1;ratioP1;P1;durP2;ratioP2;P2;SDS_P1;SDS_P2;PMS_P1;PMS_P2;Temp;Humidity;BMP_temperature;BMP_pressure;BME280_temperature;BME280_humidity;BME280_pressure;Samples;Min_cycle;Max_cycle;Signal;HPM_P1;HPM_P2
2023/06/08 00:00:52;;;;;;;13.32;7.15;;;19.70;99.90;;;;;;2090934;28;20107;-70
2023/06/08 00:01:53;;;;;;;10.88;6.82;;;19.70;99.90;;;;;;2090734;28;20074;-70
2023/06/08 00:02:55;;;;;;;20.35;8.18;;;19.70;99.90;;;;;;2093406;28;20737;-70
2023/06/08 00:03:56;;;;;;;8.95;5.80;;;19.60;99.90;;;;;;2092150;28;20036;-70
2023/06/08 00:04:57;;;;;;;11.60;6.63;;;19.60;99.90;;;;;;2090398;28;20059;-70
2023/06/08 00:05:59;;;;;;;11.48;6.00;;;19.60;99.90;;;;;;2092379;28;20519;-70
2023/06/08 00:07:03;;;;;;;10.30;6.47;;;19.60;99.90;;;;;;2092251;28;20060;-70
2023/06/08 00:08:04;;;;;;;12.43;6.95;;;19.60;99.90;;;;;;2092067;28;20065;-70
2023/06/08 00:09:04;;;;;;;12.10;7.35;;;19.60;99.90;;;;;;2089882;28;20090;-70
2023/06/08 00:10:05;;;;;;;8.77;6.30;;;19.60;99.90;;;;;;2090878;28;20035;-70
2023/06/08 00:11:06;;;;;;;17.70;6.50;;;19.60;99.90;;;;;;2093015;28;20039;-70
2023/06/08 00:12:07;;;;;;;13.85;7.03;;;19.60;99.90;;;;;;2092041;28;20091;-70
2023/06/08 00:13:08;;;;;;;8.77;6.65;;;19.60;99.90;;;;;;2092653;28;20484;-70
2023/06/08 00:14:08;;;;;;;12.00;7.10;;;19.50;99.90;;;;;;2090349;28;20067;-70
2023/06/08 00:15:10;;;;;;;13.05;7.57;;;19.50;99.90;;;;;;2092722;28;20468;-70
2023/06/08 00:16:13;;;;;;;13.57;7.22;;;19.50;99.90;;;;;;2089837;28;20029;-70
2023/06/08 00:17:14;;;;;;;10.02;6.80;;;19.50;99.90;;;;;;2090602;28;20036;-70
2023/06/08 00:18:15;;;;;;;14.38;7.25;;;19.50;99.90;;;;;;2090973;28;20032;-70
2023/06/08 00:19:15;;;;;;;16.13;7.10;;;19.50;99.90;;;;;;2088556;28;20510;-70
2023/06/08 00:20:16;;;;;;;18.30;7.18;;;19.50;99.90;;;;;;2090410;28;20046;-70
2023/06/08 00:21:20;;;;;;;13.73;6.15;;;19.50;99.90;;;;;;2092012;28;20040;-70
2023/06/08 00:22:21;;;;;;;11.10;6.68;;;19.50;99.90;;;;;;2093955;28;20035;-70
2023/06/08 00:23:21;;;;;;;10.25;6.97;;;19.50;99.90;;;;;;2093753;28;20107;-70
2023/06/08 00:24:22;;;;;;;11.38;6.78;;;19.50;99.90;;;;;;2092631;28;20036;-70
2023/06/08 00:25:23;;;;;;;16.88;7.43;;;19.50;99.90;;;;;;2092494;28;20032;-70
2023/06/08 00:26:23;;;;;;;9.60;6.75;;;19.40;99.90;;;;;;2091319;28;20016;-70
2023/06/08 00:27:24;;;;;;;10.20;6.82;;;19.40;99.90;;;;;;2092052;28;20021;-70
2023/06/08 00:28:25;;;;;;;11.20;7.22;;;19.40;99.90;;;;;;2091096;28;20021;-70
2023/06/08 00:29:25;;;;;;;10.95;6.60;;;19.40;99.90;;;;;;2091024;28;20021;-70
2023/06/08 00:30:26;;;;;;;17.92;7.75;;;19.40;99.90;;;;;;2090957;28;20021;-70
2023/06/08 00:31:27;;;;;;;10.95;7.20;;;19.40;99.90;;;;;;2091925;28;20034;-70
2023/06/08 00:32:28;;;;;;;14.35;7.15;;;19.40;99.90;;;;;;2090487;28;20074;-70
2023/06/08 00:33:28;;;;;;;10.18;7.03;;;19.40;99.90;;;;;;2091715;28;20106;-70
2023/06/08 00:34:29;;;;;;;10.48;6.97;;;19.30;99.90;;;;;;2092148;28;20020;-70
2023/06/08 00:35:30;;;;;;;13.27;7.32;;;19.30;99.90;;;;;;2092241;28;20024;-70
2023/06/08 00:36:30;;;;;;;13.85;7.20;;;19.30;99.90;;;;;;2092295;28;20029;-70
2023/06/08 00:37:31;;;;;;;10.88;6.72;;;19.30;99.90;;;;;;2090526;28;20033;-70
2023/06/08 00:38:31;;;;;;;9.30;6.38;;;19.30;99.90;;;;;;2092450;28;20028;-70
2023/06/08 00:39:32;;;;;;;11.55;6.85;;;19.30;99.90;;;;;;2093239;28;20025;-70
2023/06/08 00:40:32;;;;;;;10.95;6.80;;;19.30;99.90;;;;;;2091091;28;20036;-70
2023/06/08 00:41:33;;;;;;;11.25;6.68;;;19.30;99.90;;;;;;2091549;28;20060;-70
2023/06/08 00:42:33;;;;;;;11.82;7.13;;;19.30;99.90;;;;;;2093777;28;20032;-70
2023/06/08 00:43:34;;;;;;;13.95;6.95;;;19.30;99.90;;;;;;2091331;28;20021;-70
2023/06/08 00:44:35;;;;;;;8.98;6.45;;;19.30;99.90;;;;;;2094644;28;20071;-70
2023/06/08 00:45:35;;;;;;;15.70;7.28;;;19.20;99.90;;;;;;2093860;28;20021;-70
2023/06/08 00:46:36;;;;;;;12.60;7.22;;;19.20;99.90;;;;;;2092348;28;20485;-70
2023/06/08 00:47:37;;;;;;;10.88;6.47;;;19.20;99.90;;;;;;2093341;28;20112;-70
2023/06/08 00:48:38;;;;;;;14.13;7.82;;;19.20;99.90;;;;;;2092144;28;20016;-70
2023/06/08 00:49:39;;;;;;;10.88;7.00;;;19.20;99.90;;;;;;2091398;28;20013;-70
2023/06/08 00:50:41;;;;;;;11.18;7.07;;;19.10;99.90;;;;;;2091808;28;20032;-70
2023/06/08 00:51:42;;;;;;;13.98;7.35;;;19.10;99.90;;;;;;2091733;28;20048;-70
2023/06/08 00:52:44;;;;;;;14.25;7.32;;;19.10;99.90;;;;;;2091641;28;20887;-70
2023/06/08 00:53:46;;;;;;;10.38;7.53;;;19.10;99.90;;;;;;2092076;28;20075;-70
2023/06/08 00:54:48;;;;;;;13.77;7.97;;;19.10;99.90;;;;;;2093525;28;20036;-70
2023/06/08 00:55:52;;;;;;;13.63;7.28;;;19.10;99.90;;;;;;2091596;28;20124;-70
2023/06/08 00:56:55;;;;;;;11.73;7.47;;;19.10;99.90;;;;;;2093056;28;20404;-70
2023/06/08 00:57:55;;;;;;;13.93;7.63;;;19.10;99.90;;;;;;2091306;28;20052;-70
2023/06/08 00:58:56;;;;;;;10.75;6.68;;;19.10;99.90;;;;;;2092721;28;20033;-70
2023/06/08 01:00:01;;;;;;;13.88;7.60;;;19.00;99.90;;;;;;2094514;28;20384;-70
2023/06/08 01:01:04;;;;;;;13.68;7.45;;;19.10;99.90;;;;;;2092387;28;20024;-70
2023/06/08 01:02:05;;;;;;;11.07;6.20;;;19.00;99.90;;;;;;2092811;28;20044;-70
2023/06/08 01:03:08;;;;;;;13.18;7.55;;;19.00;99.90;;;;;;2093584;28;20043;-70
2023/06/08 01:04:11;;;;;;;16.17;7.13;;;19.00;99.90;;;;;;2092684;28;20429;-70
2023/06/08 01:05:12;;;;;;;16.45;7.80;;;19.00;99.90;;;;;;2090820;28;20397;-70
2023/06/08 01:06:16;;;;;;;14.00;8.10;;;19.00;99.90;;;;;;2092673;28;20025;-70
2023/06/08 01:07:49;;;;;;;12.35;7.50;;;19.00;99.90;;;;;;2092756;28;20019;-70
2023/06/08 01:09:21;;;;;;;13.20;7.57;;;19.00;99.90;;;;;;2092138;28;20025;-70
2023/06/08 01:10:46;;;;;;;11.13;6.88;;;18.90;99.90;;;;;;2092116;28;20029;-70
2023/06/08 01:12:02;;;;;;;11.88;6.65;;;18.90;99.90;;;;;;2090024;28;20021;-70
2023/06/08 01:13:17;;;;;;;12.80;6.93;;;18.90;99.90;;;;;;2094020;28;20085;-70
2023/06/08 01:14:30;;;;;;;13.02;6.90;;;18.80;99.90;;;;;;2092874;28;20107;-70
2023/06/08 01:15:39;;;;;;;14.32;7.47;;;18.80;99.90;;;;;;2091692;28;20032;-70
2023/06/08 01:16:49;;;;;;;11.75;6.97;;;18.80;99.90;;;;;;2093218;28;20031;-70
2023/06/08 01:17:53;;;;;;;13.50;7.45;;;18.80;99.90;;;;;;2093113;28;20075;-70
2023/06/08 01:18:59;;;;;;;15.52;7.63;;;18.70;99.90;;;;;;2092420;28;20012;-70
2023/06/08 01:20:29;;;;;;;12.23;7.60;;;18.70;99.90;;;;;;2092197;28;20127;-70
2023/06/08 01:21:47;;;;;;;11.60;7.22;;;18.70;99.90;;;;;;2087248;28;20566;-70
2023/06/08 01:22:57;;;;;;;12.05;7.25;;;18.70;99.90;;;;;;2092644;28;20621;-70
2023/06/08 01:24:15;;;;;;;15.93;6.97;;;18.70;99.90;;;;;;2092138;28;20449;-70
2023/06/08 01:25:18;;;;;;;14.13;6.70;;;18.70;99.90;;;;;;2092650;28;20091;-70
2023/06/08 01:26:20;;;;;;;12.88;7.35;;;18.70;99.90;;;;;;2091225;28;20020;-70
2023/06/08 01:27:20;;;;;;;11.23;7.10;;;18.70;99.90;;;;;;2092548;28;20021;-70
2023/06/08 01:28:22;;;;;;;21.27;7.15;;;18.70;99.90;;;;;;2092257;28;20025;-70
2023/06/08 01:29:25;;;;;;;10.15;6.80;;;18.70;99.90;;;;;;2093719;28;20032;-70
2023/06/08 01:30:26;;;;;;;11.82;7.55;;;18.70;99.90;;;;;;2091363;28;20009;-70
2023/06/08 01:31:26;;;;;;;13.43;6.90;;;18.70;99.90;;;;;;2091538;28;20023;-70
2023/06/08 01:32:27;;;;;;;11.38;6.95;;;18.70;99.90;;;;;;2093254;28;20025;-70
2023/06/08 01:33:29;;;;;;;13.85;6.95;;;18.70;99.90;;;;;;2091457;28;20024;-70
2023/06/08 01:34:30;;;;;;;12.00;6.63;;;18.70;99.90;;;;;;2093956;28;20087;-70
2023/06/08 01:35:30;;;;;;;11.68;6.60;;;18.70;99.90;;;;;;2095256;28;20111;-69
2023/06/08 01:36:48;;;;;;;16.65;7.57;;;18.70;99.90;;;;;;2093002;28;20037;-70
2023/06/08 01:37:58;;;;;;;13.02;7.50;;;18.70;99.90;;;;;;2091303;28;20029;-70
2023/06/08 01:39:09;;;;;;;14.02;6.95;;;18.60;99.90;;;;;;2092425;28;20056;-70
2023/06/08 01:40:19;;;;;;;15.50;8.13;;;18.60;99.90;;;;;;2091157;28;20135;-70
2023/06/08 01:41:30;;;;;;;7.97;6.45;;;18.60;99.90;;;;;;2090966;28;20096;-70
2023/06/08 01:42:32;;;;;;;11.23;6.93;;;18.60;99.90;;;;;;2093331;28;20584;-70
2023/06/08 01:43:35;;;;;;;15.25;7.20;;;18.50;99.90;;;;;;2092602;28;20129;-70
2023/06/08 01:44:43;;;;;;;13.25;7.15;;;18.50;99.90;;;;;;2093693;28;20047;-70
2023/06/08 01:45:47;;;;;;;11.10;7.25;;;18.50;99.90;;;;;;2092742;28;20035;-70
2023/06/08 01:46:55;;;;;;;11.07;6.53;;;18.50;99.90;;;;;;2094246;28;20033;-70
2023/06/08 01:48:02;;;;;;;14.35;7.30;;;18.50;99.90;;;;;;2092481;28;20669;-70
2023/06/08 01:49:04;;;;;;;10.13;7.07;;;18.50;99.90;;;;;;2091403;28;20032;-70
2023/06/08 01:50:06;;;;;;;15.95;8.13;;;18.40;99.90;;;;;;2091619;28;20663;-70
2023/06/08 01:51:08;;;;;;;17.35;7.80;;;18.40;99.90;;;;;;2089632;28;20654;-70
2023/06/08 01:52:09;;;;;;;15.63;7.75;;;18.40;99.90;;;;;;2093127;28;20398;-70
2023/06/08 01:53:11;;;;;;;12.45;6.90;;;18.40;99.90;;;;;;2095760;28;20142;-70
2023/06/08 01:54:11;;;;;;;15.30;7.45;;;18.40;99.90;;;;;;2091355;28;20020;-70
2023/06/08 01:55:19;;;;;;;11.80;7.20;;;18.40;99.90;;;;;;2091732;28;20024;-70
2023/06/08 01:56:20;;;;;;;11.27;6.72;;;18.40;99.90;;;;;;2093970;28;20519;-70
2023/06/08 01:57:21;;;;;;;15.93;7.07;;;18.40;99.90;;;;;;2091225;28;20070;-70
2023/06/08 01:58:21;;;;;;;13.05;7.80;;;18.40;99.90;;;;;;2092609;28;20078;-70
2023/06/08 01:59:22;;;;;;;11.65;6.65;;;18.30;99.90;;;;;;2095406;28;20119;-70
2023/06/08 02:00:23;;;;;;;13.63;7.85;;;18.30;99.90;;;;;;2094070;28;20062;-70
2023/06/08 02:01:24;;;;;;;14.10;7.35;;;18.30;99.90;;;;;;2092257;28;20024;-70
2023/06/08 02:02:24;;;;;;;10.38;6.75;;;18.30;99.90;;;;;;2089878;28;20031;-70
2023/06/08 02:03:25;;;;;;;13.82;7.07;;;18.30;99.90;;;;;;2092582;28;20087;-70
2023/06/08 02:04:25;;;;;;;12.95;7.38;;;18.30;99.90;;;;;;2092518;28;20033;-70
2023/06/08 02:05:26;;;;;;;12.73;7.30;;;18.30;99.90;;;;;;2093072;28;20104;-70
2023/06/08 02:06:26;;;;;;;16.42;7.85;;;18.30;99.90;;;;;;2093376;28;20058;-70
2023/06/08 02:07:27;;;;;;;12.40;7.15;;;18.30;99.90;;;;;;2092409;28;20471;-70
2023/06/08 02:08:27;;;;;;;12.00;7.43;;;18.30;99.90;;;;;;2092591;28;20036;-70
2023/06/08 02:09:28;;;;;;;10.23;7.15;;;18.20;99.90;;;;;;2092363;28;20017;-70
2023/06/08 02:10:29;;;;;;;12.93;7.53;;;18.20;99.90;;;;;;2091777;28;20025;-70
2023/06/08 02:11:29;;;;;;;11.93;6.72;;;18.20;99.90;;;;;;2093550;28;20463;-70
2023/06/08 02:12:30;;;;;;;11.25;7.10;;;18.20;99.90;;;;;;2091742;28;20488;-70
2023/06/08 02:13:34;;;;;;;12.65;7.43;;;18.20;99.90;;;;;;2092978;28;20077;-70
2023/06/08 02:14:35;;;;;;;14.18;7.93;;;18.20;99.90;;;;;;2092943;28;20048;-70
2023/06/08 02:15:36;;;;;;;10.75;6.63;;;18.20;99.90;;;;;;2095515;28;20142;-70
2023/06/08 02:16:38;;;;;;;8.00;6.57;;;18.20;99.90;;;;;;2092971;28;20028;-70
2023/06/08 02:17:38;;;;;;;13.38;7.50;;;18.20;99.90;;;;;;2092455;28;20047;-70
2023/06/08 02:18:41;;;;;;;13.15;7.20;;;18.20;99.90;;;;;;2095206;28;20027;-70
2023/06/08 02:19:42;;;;;;;13.77;7.85;;;18.10;99.90;;;;;;2094397;28;20195;-70
2023/06/08 02:20:42;;;;;;;13.45;7.85;;;18.10;99.90;;;;;;2090483;28;20167;-70
2023/06/08 02:21:43;;;;;;;14.50;7.50;;;18.20;99.90;;;;;;2092368;28;20116;-70
2023/06/08 02:22:45;;;;;;;14.68;8.15;;;18.10;99.90;;;;;;2093463;28;20028;-70
2023/06/08 02:23:46;;;;;;;14.60;7.75;;;18.10;99.90;;;;;;2092707;28;20096;-70
2023/06/08 02:24:48;;;;;;;11.80;7.38;;;18.10;99.90;;;;;;2090169;28;20025;-70
2023/06/08 02:25:50;;;;;;;10.73;6.72;;;18.10;99.90;;;;;;2090485;28;20021;-70
2023/06/08 02:26:54;;;;;;;12.93;7.00;;;18.10;99.90;;;;;;2092488;28;20378;-70
2023/06/08 02:27:55;;;;;;;7.82;6.13;;;18.10;99.90;;;;;;2092009;28;20519;-70
2023/06/08 02:28:55;;;;;;;12.77;7.50;;;18.10;99.90;;;;;;2094450;28;20048;-70
2023/06/08 02:29:57;;;;;;;10.40;7.38;;;18.10;99.90;;;;;;2093234;28;20025;-70
2023/06/08 02:30:57;;;;;;;10.00;6.93;;;18.00;99.90;;;;;;2093193;28;20025;-70
2023/06/08 02:31:58;;;;;;;9.77;7.13;;;18.00;99.90;;;;;;2091674;28;20021;-70
2023/06/08 02:32:59;;;;;;;13.43;7.50;;;18.00;99.90;;;;;;2090324;28;20530;-70
2023/06/08 02:34:00;;;;;;;11.60;6.90;;;18.00;99.90;;;;;;2092786;28;20033;-70
2023/06/08 02:35:01;;;;;;;11.95;7.03;;;18.00;99.90;;;;;;2091790;28;20151;-70
2023/06/08 02:36:02;;;;;;;9.73;6.88;;;18.00;99.90;;;;;;2091628;28;20029;-70
2023/06/08 02:37:03;;;;;;;11.30;6.68;;;18.00;99.90;;;;;;2092770;28;20522;-70
2023/06/08 02:38:04;;;;;;;12.75;7.95;;;18.00;99.90;;;;;;2092269;28;20020;-70
2023/06/08 02:39:04;;;;;;;10.35;6.85;;;18.00;99.90;;;;;;2093130;28;20032;-70
2023/06/08 02:40:06;;;;;;;11.50;6.95;;;17.90;99.90;;;;;;2092391;28;20027;-70
2023/06/08 02:41:06;;;;;;;12.13;7.53;;;17.90;99.90;;;;;;2093088;28;20032;-70
2023/06/08 02:42:07;;;;;;;12.40;7.30;;;17.90;99.90;;;;;;2090635;28;20095;-70
2023/06/08 02:43:11;;;;;;;12.73;7.28;;;17.90;99.90;;;;;;2094275;28;20070;-70
2023/06/08 02:44:11;;;;;;;11.60;6.97;;;17.90;99.90;;;;;;2091490;28;20029;-70
2023/06/08 02:45:12;;;;;;;12.40;6.95;;;17.90;99.90;;;;;;2091537;28;20111;-70
2023/06/08 02:46:12;;;;;;;12.32;6.90;;;17.80;99.90;;;;;;2091295;28;20611;-70
2023/06/08 02:47:14;;;;;;;10.23;6.95;;;17.80;99.90;;;;;;2092128;28;20025;-70
2023/06/08 02:48:14;;;;;;;15.77;7.28;;;17.90;99.90;;;;;;2093404;28;20024;-70
2023/06/08 02:49:15;;;;;;;13.88;8.00;;;17.80;99.90;;;;;;2091977;28;20020;-70
2023/06/08 02:50:15;;;;;;;13.38;8.13;;;17.80;99.90;;;;;;2092749;28;20115;-70
2023/06/08 02:51:16;;;;;;;14.32;7.65;;;17.80;99.90;;;;;;2091489;28;20020;-70
2023/06/08 02:52:17;;;;;;;12.88;8.93;;;17.80;99.90;;;;;;2090859;28;20023;-70
2023/06/08 02:53:17;;;;;;;10.75;7.72;;;17.80;99.90;;;;;;2091328;28;20028;-70
2023/06/08 02:54:19;;;;;;;14.07;7.95;;;17.80;99.90;;;;;;2090916;28;20091;-70
2023/06/08 02:55:20;;;;;;;10.57;6.90;;;17.70;99.90;;;;;;2092365;28;20032;-70
2023/06/08 02:56:21;;;;;;;10.75;7.35;;;17.70;99.90;;;;;;2091872;28;20598;-72
2023/06/08 02:57:22;;;;;;;10.75;6.97;;;17.70;99.90;;;;;;2090738;28;20028;-70
2023/06/08 02:58:23;;;;;;;14.88;8.02;;;17.70;99.90;;;;;;2091921;28;20074;-70
2023/06/08 02:59:24;;;;;;;11.90;8.13;;;17.70;99.90;;;;;;2093632;28;20048;-70
2023/06/08 03:00:25;;;;;;;14.52;8.27;;;17.70;99.90;;;;;;2092078;28;20043;-72
2023/06/08 03:01:30;;;;;;;14.73;7.82;;;17.60;99.90;;;;;;2089591;28;20021;-70
2023/06/08 03:02:31;;;;;;;14.50;8.63;;;17.60;99.90;;;;;;2090589;28;20036;-70
2023/06/08 03:03:31;;;;;;;12.23;7.82;;;17.60;99.90;;;;;;2090530;28;20021;-70
2023/06/08 03:04:32;;;;;;;11.57;8.23;;;17.60;99.90;;;;;;2090966;28;20760;-70
2023/06/08 03:05:34;;;;;;;16.25;7.55;;;17.60;99.90;;;;;;2089568;28;20033;-70
2023/06/08 03:06:36;;;;;;;12.88;7.75;;;17.50;99.90;;;;;;2091355;28;20116;-70
2023/06/08 03:07:40;;;;;;;15.45;8.80;;;17.50;99.90;;;;;;2090322;28;20017;-70
2023/06/08 03:08:41;;;;;;;12.90;9.23;;;17.50;99.90;;;;;;2090667;28;20017;-70
2023/06/08 03:09:42;;;;;;;15.55;8.57;;;17.50;99.90;;;;;;2090569;28;20485;-70
2023/06/08 03:10:42;;;;;;;12.38;8.07;;;17.50;99.90;;;;;;2092014;28;20040;-70
2023/06/08 03:11:43;;;;;;;15.07;8.30;;;17.50;99.90;;;;;;2093957;28;20024;-70
2023/06/08 03:12:43;;;;;;;12.95;8.00;;;17.40;99.90;;;;;;2096920;28;20112;-70
2023/06/08 03:13:45;;;;;;;13.82;8.40;;;17.40;99.90;;;;;;2092347;28;20036;-70
2023/06/08 03:14:48;;;;;;;14.48;9.07;;;17.40;99.90;;;;;;2092387;28;20095;-70
2023/06/08 03:15:52;;;;;;;13.88;9.25;;;17.40;99.90;;;;;;2092164;28;20025;-70
2023/06/08 03:16:53;;;;;;;12.10;8.55;;;17.30;99.90;;;;;;2092706;28;20063;-71
2023/06/08 03:17:53;;;;;;;13.32;8.68;;;17.30;99.90;;;;;;2091648;28;20021;-70
2023/06/08 03:18:54;;;;;;;12.20;7.80;;;17.30;99.90;;;;;;2090452;28;20151;-70
2023/06/08 03:19:55;;;;;;;16.23;7.60;;;17.30;99.90;;;;;;2091184;28;20020;-70
2023/06/08 03:20:58;;;;;;;14.90;8.82;;;17.30;99.90;;;;;;2090579;28;20546;-70
2023/06/08 03:22:04;;;;;;;13.05;8.45;;;17.30;99.90;;;;;;2089660;28;20028;-70
2023/06/08 03:23:05;;;;;;;17.63;8.90;;;17.30;99.90;;;;;;2092915;28;20048;-70
2023/06/08 03:24:05;;;;;;;13.23;7.95;;;17.20;99.90;;;;;;2092393;28;20142;-70
2023/06/08 03:25:07;;;;;;;10.20;7.25;;;17.20;99.90;;;;;;2090291;28;20056;-70
2023/06/08 03:26:08;;;;;;;12.80;7.97;;;17.20;99.90;;;;;;2091644;28;20079;-70
2023/06/08 03:27:08;;;;;;;13.90;8.65;;;17.20;99.90;;;;;;2091568;28;20029;-70
2023/06/08 03:28:09;;;;;;;16.75;9.43;;;17.20;99.90;;;;;;2091857;28;20717;-70
2023/06/08 03:29:10;;;;;;;10.95;7.80;;;17.20;99.90;;;;;;2090453;28;20078;-70
2023/06/08 03:30:11;;;;;;;15.52;8.52;;;17.20;99.90;;;;;;2090971;28;20013;-70
2023/06/08 03:31:12;;;;;;;13.38;8.57;;;17.20;99.90;;;;;;2091031;28;20044;-70
2023/06/08 03:32:13;;;;;;;15.00;8.93;;;17.10;99.90;;;;;;2093082;28;20484;-70
2023/06/08 03:33:14;;;;;;;20.52;8.68;;;17.10;99.90;;;;;;2091021;28;20425;-70
2023/06/08 03:34:16;;;;;;;16.80;8.23;;;17.10;99.90;;;;;;2092301;28;20052;-70
2023/06/08 03:35:17;;;;;;;16.05;8.88;;;17.00;99.90;;;;;;2090895;28;20032;-70
2023/06/08 03:36:18;;;;;;;18.25;8.88;;;17.10;99.90;;;;;;2091125;28;20120;-70
2023/06/08 03:37:18;;;;;;;13.82;8.10;;;17.00;99.90;;;;;;2089715;28;20025;-71
2023/06/08 03:38:19;;;;;;;13.57;8.35;;;17.00;99.90;;;;;;2090811;28;20136;-70
2023/06/08 03:39:23;;;;;;;12.15;8.15;;;17.00;99.90;;;;;;2091454;28;20649;-70
2023/06/08 03:40:23;;;;;;;17.20;9.02;;;17.00;99.90;;;;;;2089296;28;20033;-70
2023/06/08 03:41:24;;;;;;;16.20;9.20;;;16.90;99.90;;;;;;2089782;28;20040;-70
2023/06/08 03:42:24;;;;;;;17.83;9.07;;;16.90;99.90;;;;;;2091449;28;20103;-70
2023/06/08 03:43:25;;;;;;;14.60;8.50;;;16.90;99.90;;;;;;2091209;28;20032;-70
2023/06/08 03:44:25;;;;;;;16.17;8.88;;;16.90;99.90;;;;;;2093144;28;20025;-70
2023/06/08 03:45:26;;;;;;;14.63;9.07;;;16.90;99.90;;;;;;2093260;28;20020;-70
2023/06/08 03:46:27;;;;;;;11.90;8.05;;;16.80;99.90;;;;;;2092976;28;20101;-70
2023/06/08 03:47:27;;;;;;;13.93;8.30;;;16.80;99.90;;;;;;2091262;28;20013;-70
2023/06/08 03:48:28;;;;;;;12.90;8.40;;;16.80;99.90;;;;;;2090156;28;20029;-70
2023/06/08 03:49:28;;;;;;;15.27;9.63;;;16.80;99.90;;;;;;2091116;28;20013;-70
2023/06/08 03:50:30;;;;;;;14.90;8.40;;;16.80;99.90;;;;;;2091684;28;20074;-70
2023/06/08 03:51:31;;;;;;;18.85;8.38;;;16.80;99.90;;;;;;2092848;28;20488;-70
2023/06/08 03:52:31;;;;;;;17.73;9.02;;;16.80;99.90;;;;;;2091595;28;20056;-70
2023/06/08 03:53:32;;;;;;;13.70;8.55;;;16.80;99.90;;;;;;2092302;28;20108;-70
2023/06/08 03:54:32;;;;;;;12.10;9.05;;;16.80;99.90;;;;;;2091078;28;20673;-70
2023/06/08 03:55:33;;;;;;;12.75;8.85;;;16.70;99.90;;;;;;2091045;28;20389;-70
2023/06/08 03:56:33;;;;;;;17.65;9.05;;;16.70;99.90;;;;;;2089789;28;20020;-70
2023/06/08 03:57:35;;;;;;;16.02;9.27;;;16.70;99.90;;;;;;2091384;28;20013;-70
2023/06/08 03:58:35;;;;;;;19.95;9.27;;;16.70;99.90;;;;;;2088880;28;20016;-70
2023/06/08 03:59:36;;;;;;;12.00;8.45;;;16.70;99.90;;;;;;2090482;28;20512;-70
2023/06/08 04:00:37;;;;;;;18.52;8.73;;;16.70;99.90;;;;;;2089045;28;20017;-70
2023/06/08 04:01:41;;;;;;;12.48;8.98;;;16.70;99.90;;;;;;2091390;28;20630;-70
2023/06/08 04:02:41;;;;;;;15.18;9.15;;;16.70;99.90;;;;;;2091444;28;20441;-70
2023/06/08 04:03:42;;;;;;;16.58;8.70;;;16.60;99.90;;;;;;2091563;28;20029;-70
2023/06/08 04:04:44;;;;;;;17.65;8.88;;;16.60;99.90;;;;;;2091972;28;20029;-70
2023/06/08 04:05:45;;;;;;;14.32;8.32;;;16.60;99.90;;;;;;2090509;28;20345;-70
2023/06/08 04:06:45;;;;;;;16.88;9.18;;;16.60;99.90;;;;;;2093380;28;20091;-70
2023/06/08 04:07:47;;;;;;;16.50;8.95;;;16.60;99.90;;;;;;2092183;28;20032;-70
2023/06/08 04:08:48;;;;;;;10.60;8.80;;;16.60;99.90;;;;;;2092046;28;20415;-70
2023/06/08 04:09:48;;;;;;;15.80;8.63;;;16.60;99.90;;;;;;2091179;28;20073;-70
2023/06/08 04:10:49;;;;;;;15.60;10.05;;;16.60;99.90;;;;;;2089738;28;20104;-71
2023/06/08 04:11:50;;;;;;;14.48;9.43;;;16.60;99.90;;;;;;2091339;28;20021;-70
2023/06/08 04:12:51;;;;;;;13.00;8.82;;;16.60;99.90;;;;;;2090339;28;20039;-70
2023/06/08 04:13:52;;;;;;;17.60;9.95;;;16.60;99.90;;;;;;2089802;28;20057;-70
2023/06/08 04:14:52;;;;;;;16.63;9.68;;;16.60;99.90;;;;;;2091987;28;20032;-70
2023/06/08 04:15:53;;;;;;;16.45;9.38;;;16.60;99.90;;;;;;2091133;28;20113;-70
2023/06/08 04:16:53;;;;;;;19.60;10.20;;;16.60;99.90;;;;;;2091904;28;20040;-70
2023/06/08 04:17:54;;;;;;;13.55;8.30;;;16.60;99.90;;;;;;2091280;28;20396;-70
2023/06/08 04:18:55;;;;;;;12.68;8.85;;;16.50;99.90;;;;;;2089581;28;20060;-70
2023/06/08 04:19:55;;;;;;;15.90;9.20;;;16.50;99.90;;;;;;2091357;28;20029;-70
2023/06/08 04:20:56;;;;;;;14.23;9.30;;;16.50;99.90;;;;;;2090850;28;20076;-70
2023/06/08 04:21:56;;;;;;;13.60;9.15;;;16.50;99.90;;;;;;2092084;28;20466;-70
2023/06/08 04:22:57;;;;;;;15.82;9.48;;;16.50;99.90;;;;;;2093820;28;20516;-70
2023/06/08 04:23:57;;;;;;;17.38;9.80;;;16.50;99.90;;;;;;2091377;28;20047;-70
2023/06/08 04:24:58;;;;;;;15.68;10.00;;;16.50;99.90;;;;;;2090966;28;20083;-70
2023/06/08 04:26:00;;;;;;;14.88;9.32;;;16.50;99.90;;;;;;2090231;28;20557;-70
2023/06/08 04:27:00;;;;;;;15.23;9.10;;;16.50;99.90;;;;;;2089925;28;20021;-70
2023/06/08 04:28:01;;;;;;;21.20;9.88;;;16.50;99.90;;;;;;2090093;28;20024;-70
2023/06/08 04:29:03;;;;;;;14.65;9.30;;;16.50;99.90;;;;;;2089913;28;20042;-70
2023/06/08 04:30:04;;;;;;;17.65;10.23;;;16.50;99.90;;;;;;2090300;28;20388;-70
2023/06/08 04:31:05;;;;;;;25.85;9.25;;;16.60;99.90;;;;;;2093554;28;20028;-70
2023/06/08 04:32:05;;;;;;;15.00;8.63;;;16.60;99.90;;;;;;2092825;28;20023;-70
2023/06/08 04:33:06;;;;;;;15.73;8.82;;;16.50;99.90;;;;;;2092936;28;20491;-70
2023/06/08 04:34:08;;;;;;;17.00;9.65;;;16.60;99.90;;;;;;2095186;28;20020;-70
2023/06/08 04:35:09;;;;;;;15.98;9.45;;;16.60;99.90;;;;;;2089613;28;20048;-70
2023/06/08 04:36:09;;;;;;;19.27;9.43;;;16.60;99.90;;;;;;2091342;28;20024;-70
2023/06/08 04:37:10;;;;;;;16.60;9.95;;;16.60;99.90;;;;;;2092949;28;20456;-70
2023/06/08 04:38:14;;;;;;;17.70;10.07;;;16.60;99.90;;;;;;2089847;28;20020;-70
2023/06/08 04:39:15;;;;;;;15.73;9.95;;;16.60;99.90;;;;;;2091815;28;20029;-70
2023/06/08 04:40:16;;;;;;;10.27;7.68;;;16.60;99.90;;;;;;2090059;28;20039;-70
2023/06/08 04:41:18;;;;;;;14.98;8.73;;;16.60;99.90;;;;;;2091806;28;20032;-70
2023/06/08 04:42:19;;;;;;;14.60;9.43;;;16.60;99.90;;;;;;2091343;28;20051;-70
2023/06/08 04:43:21;;;;;;;16.77;9.07;;;16.60;99.90;;;;;;2090200;28;20037;-70
2023/06/08 04:44:21;;;;;;;14.20;8.95;;;16.60;99.90;;;;;;2090850;28;20028;-70
2023/06/08 04:45:23;;;;;;;15.43;9.60;;;16.60;99.90;;;;;;2093205;28;20406;-70
2023/06/08 04:46:25;;;;;;;13.70;9.30;;;16.60;99.90;;;;;;2091203;28;20495;-70
2023/06/08 04:47:29;;;;;;;15.05;8.82;;;16.60;99.90;;;;;;2091730;28;20025;-70
2023/06/08 04:48:29;;;;;;;12.95;8.73;;;16.60;99.90;;;;;;2090617;28;20021;-70
2023/06/08 04:49:33;;;;;;;16.40;9.60;;;16.60;99.90;;;;;;2090695;28;20021;-70
2023/06/08 04:50:34;;;;;;;13.65;8.88;;;16.60;99.90;;;;;;2091948;28;20107;-70
2023/06/08 04:51:40;;;;;;;20.15;9.50;;;16.60;99.90;;;;;;2090108;28;20017;-70
2023/06/08 04:52:41;;;;;;;15.00;8.63;;;16.60;99.90;;;;;;2092800;28;20103;-70
2023/06/08 04:53:42;;;;;;;13.48;8.88;;;16.60;99.90;;;;;;2091828;28;20028;-70
2023/06/08 04:54:52;;;;;;;12.82;8.90;;;16.60;99.90;;;;;;2091811;28;20017;-70
2023/06/08 04:55:57;;;;;;;;;;;16.60;99.90;;;;;;2088558;28;20017;-70
2023/06/08 04:56:58;;;;;;;15.82;8.32;;;16.60;99.90;;;;;;2089996;28;19995;-70
2023/06/08 04:57:59;;;;;;;15.07;9.40;;;16.60;99.90;;;;;;2091311;28;20502;-70
2023/06/08 04:59:00;;;;;;;11.80;8.43;;;16.60;99.90;;;;;;2093425;28;20024;-70
2023/06/08 05:00:00;;;;;;;21.05;10.82;;;16.60;99.90;;;;;;2092164;28;20032;-70
2023/06/08 05:01:01;;;;;;;13.48;9.00;;;16.70;99.90;;;;;;2090444;28;20024;-70
2023/06/08 05:02:02;;;;;;;17.08;9.50;;;16.70;99.90;;;;;;2093463;28;20122;-70
2023/06/08 05:03:03;;;;;;;14.05;8.95;;;16.70;99.90;;;;;;2091677;28;20418;-70
2023/06/08 05:04:07;;;;;;;14.23;9.30;;;16.70;99.90;;;;;;2092006;28;20143;-70
2023/06/08 05:05:08;;;;;;;15.45;9.60;;;16.70;99.90;;;;;;2090532;28;20024;-70
2023/06/08 05:06:08;;;;;;;18.60;9.85;;;16.70;99.90;;;;;;2091642;28;20021;-70
2023/06/08 05:07:09;;;;;;;14.35;8.60;;;16.70;99.90;;;;;;2088615;28;20032;-70
2023/06/08 05:08:09;;;;;;;14.00;8.95;;;16.80;99.90;;;;;;2094349;28;20020;-70
2023/06/08 05:09:12;;;;;;;16.75;9.68;;;16.80;99.90;;;;;;2091826;28;20094;-70
2023/06/08 05:10:12;;;;;;;16.17;10.05;;;16.80;99.90;;;;;;2090709;28;20012;-70
2023/06/08 05:11:13;;;;;;;20.30;9.07;;;16.80;99.90;;;;;;2091938;28;20056;-70
2023/06/08 05:12:13;;;;;;;16.25;10.15;;;16.80;99.90;;;;;;2090455;28;20021;-70
2023/06/08 05:13:14;;;;;;;15.48;9.85;;;16.80;99.90;;;;;;2091871;28;20044;-70
2023/06/08 05:14:14;;;;;;;15.50;9.25;;;16.90;99.90;;;;;;2090933;28;20017;-70
2023/06/08 05:15:15;;;;;;;13.15;9.30;;;16.90;99.90;;;;;;2091603;28;20025;-70
2023/06/08 05:16:16;;;;;;;17.42;9.77;;;16.80;99.90;;;;;;2089861;28;20020;-70
2023/06/08 05:17:16;;;;;;;16.90;8.55;;;16.80;99.90;;;;;;2091129;28;20952;-70
2023/06/08 05:18:17;;;;;;;13.68;8.75;;;16.80;99.90;;;;;;2093056;28;20025;-70
2023/06/08 05:19:17;;;;;;;16.75;8.75;;;16.80;99.90;;;;;;2091605;28;20146;-70
2023/06/08 05:20:20;;;;;;;15.05;9.93;;;16.90;99.90;;;;;;2090527;28;20020;-70